Como, Mississippi
Current Conditions -  °F | °C
As of 2:35 AM on Sunday 23 Nov 2014 (Local Time) from KUOX Reporting Station
Overcast Overcast  
Wind Chill: 57°   Ceiling: 1400
Heat Index: 57°   Visibility: 10mi
Dew Point: 54°   Wind: 12mph
Humidity: 88%   Direction: 140°SE
Pressure: 29.88"   Gusts: NA
Location:  34.51°N, 89.94°W
Report Text: KUOX 230835Z AUTO 14010KT 10SM OVC014 14/12 A2988 RMK AO2 PWINO PNO
Loading
Personal Weather Stations






























Interactive Weather Map New forecast layout! Learn more

10-Day Weather Forecast

Advertisements
Track Severe Weather on mobile